sensor_id;sensor_type;location;lat;lon;timestamp;pressure;altitude;pressure_sealevel;temperature;humidity
7480;BME280;3781;42.272;22.658;2022-07-06T00:00:04;94636.22;;;18.83;100.00
7480;BME280;3781;42.272;22.658;2022-07-06T00:02:31;94630.94;;;18.83;100.00
7480;BME280;3781;42.272;22.658;2022-07-06T00:04:58;94628.31;;;18.68;100.00
7480;BME280;3781;42.272;22.658;2022-07-06T00:07:24;94638.09;;;18.60;100.00
7480;BME280;3781;42.272;22.658;2022-07-06T00:09:51;94615.78;;;18.41;100.00
7480;BME280;3781;42.272;22.658;2022-07-06T00:12:18;94638.31;;;18.58;100.00
7480;BME280;3781;42.272;22.658;2022-07-06T00:14:46;94634.38;;;18.69;100.00
7480;BME280;3781;42.272;22.658;2022-07-06T00:17:13;94635.84;;;18.57;100.00
7480;BME280;3781;42.272;22.658;2022-07-06T00:19:40;94637.47;;;18.58;100.00
7480;BME280;3781;42.272;22.658;2022-07-06T00:22:06;94622.00;;;18.48;100.00
7480;BME280;3781;42.272;22.658;2022-07-06T00:24:33;94637.84;;;18.55;100.00
7480;BME280;3781;42.272;22.658;2022-07-06T00:27:00;94630.50;;;18.65;100.00
7480;BME280;3781;42.272;22.658;2022-07-06T00:29:27;94607.38;;;18.60;100.00
7480;BME280;3781;42.272;22.658;2022-07-06T00:31:57;94604.38;;;18.63;100.00
7480;BME280;3781;42.272;22.658;2022-07-06T00:34:24;94612.72;;;18.52;100.00
7480;BME280;3781;42.272;22.658;2022-07-06T00:36:51;94608.28;;;18.53;100.00
7480;BME280;3781;42.272;22.658;2022-07-06T00:39:18;94605.16;;;18.35;100.00
7480;BME280;3781;42.272;22.658;2022-07-06T00:41:47;94602.00;;;18.25;100.00
7480;BME280;3781;42.272;22.658;2022-07-06T00:44:14;94597.72;;;18.24;100.00
7480;BME280;3781;42.272;22.658;2022-07-06T00:46:40;94583.34;;;17.82;100.00
7480;BME280;3781;42.272;22.658;2022-07-06T00:49:09;94596.38;;;17.76;100.00
7480;BME280;3781;42.272;22.658;2022-07-06T00:51:56;94594.22;;;17.79;100.00
7480;BME280;3781;42.272;22.658;2022-07-06T00:54:23;94578.31;;;17.95;100.00
7480;BME280;3781;42.272;22.658;2022-07-06T00:56:51;94586.97;;;17.81;100.00
7480;BME280;3781;42.272;22.658;2022-07-06T00:59:18;94564.13;;;17.45;100.00
7480;BME280;3781;42.272;22.658;2022-07-06T01:01:44;94580.00;;;17.51;100.00
7480;BME280;3781;42.272;22.658;2022-07-06T01:04:13;94574.47;;;17.46;100.00
7480;BME280;3781;42.272;22.658;2022-07-06T01:06:39;94569.44;;;17.37;100.00
7480;BME280;3781;42.272;22.658;2022-07-06T01:09:07;94530.41;;;17.33;100.00
7480;BME280;3781;42.272;22.658;2022-07-06T01:11:33;94569.16;;;17.54;100.00
7480;BME280;3781;42.272;22.658;2022-07-06T01:14:00;94557.84;;;17.54;100.00
7480;BME280;3781;42.272;22.658;2022-07-06T01:16:27;94544.28;;;17.42;100.00
7480;BME280;3781;42.272;22.658;2022-07-06T01:18:54;94541.28;;;17.30;100.00
7480;BME280;3781;42.272;22.658;2022-07-06T01:21:22;94518.88;;;17.20;100.00
7480;BME280;3781;42.272;22.658;2022-07-06T01:23:49;94544.66;;;17.39;100.00
7480;BME280;3781;42.272;22.658;2022-07-06T01:26:21;94550.47;;;17.49;100.00
7480;BME280;3781;42.272;22.658;2022-07-06T01:28:50;94544.38;;;17.49;100.00
7480;BME280;3781;42.272;22.658;2022-07-06T01:31:17;94548.34;;;17.53;100.00
7480;BME280;3781;42.272;22.658;2022-07-06T01:33:44;94526.19;;;17.47;100.00
7480;BME280;3781;42.272;22.658;2022-07-06T01:36:11;94556.16;;;17.75;100.00
7480;BME280;3781;42.272;22.658;2022-07-06T01:38:47;94526.63;;;17.59;100.00
7480;BME280;3781;42.272;22.658;2022-07-06T01:41:14;94548.84;;;17.85;100.00
7480;BME280;3781;42.272;22.658;2022-07-06T01:43:41;94539.69;;;17.81;100.00
7480;BME280;3781;42.272;22.658;2022-07-06T01:46:08;94555.72;;;17.86;100.00
7480;BME280;3781;42.272;22.658;2022-07-06T01:48:34;94554.13;;;17.85;100.00
7480;BME280;3781;42.272;22.658;2022-07-06T01:51:01;94559.00;;;17.88;100.00
7480;BME280;3781;42.272;22.658;2022-07-06T01:53:28;94560.91;;;17.94;100.00
7480;BME280;3781;42.272;22.658;2022-07-06T01:55:56;94530.97;;;17.66;100.00
7480;BME280;3781;42.272;22.658;2022-07-06T01:58:23;94568.16;;;17.55;100.00
7480;BME280;3781;42.272;22.658;2022-07-06T02:00:50;94569.16;;;17.54;100.00
7480;BME280;3781;42.272;22.658;2022-07-06T02:03:17;94569.22;;;17.23;100.00
7480;BME280;3781;42.272;22.658;2022-07-06T02:05:44;94572.66;;;17.24;100.00
7480;BME280;3781;42.272;22.658;2022-07-06T02:08:10;94578.97;;;17.38;100.00
7480;BME280;3781;42.272;22.658;2022-07-06T02:10:37;94565.72;;;17.31;100.00
7480;BME280;3781;42.272;22.658;2022-07-06T02:13:05;94566.13;;;17.20;100.00
7480;BME280;3781;42.272;22.658;2022-07-06T02:15:32;94570.09;;;17.16;100.00
7480;BME280;3781;42.272;22.658;2022-07-06T02:17:59;94560.06;;;17.19;100.00
7480;BME280;3781;42.272;22.658;2022-07-06T02:20:26;94559.16;;;17.27;100.00
7480;BME280;3781;42.272;22.658;2022-07-06T02:22:53;94556.53;;;17.27;100.00
7480;BME280;3781;42.272;22.658;2022-07-06T02:25:19;94560.16;;;17.26;100.00
7480;BME280;3781;42.272;22.658;2022-07-06T02:27:46;94563.09;;;17.31;100.00
7480;BME280;3781;42.272;22.658;2022-07-06T02:30:14;94569.09;;;17.17;100.00
7480;BME280;3781;42.272;22.658;2022-07-06T02:32:42;94573.63;;;17.23;100.00
7480;BME280;3781;42.272;22.658;2022-07-06T02:35:09;94513.72;;;16.81;100.00
7480;BME280;3781;42.272;22.658;2022-07-06T02:37:35;94557.50;;;17.11;100.00
7480;BME280;3781;42.272;22.658;2022-07-06T02:40:03;94570.19;;;17.22;100.00
7480;BME280;3781;42.272;22.658;2022-07-06T02:42:30;94541.50;;;17.21;100.00
7480;BME280;3781;42.272;22.658;2022-07-06T02:44:56;94582.69;;;17.43;100.00
7480;BME280;3781;42.272;22.658;2022-07-06T02:47:25;94581.28;;;17.32;100.00
7480;BME280;3781;42.272;22.658;2022-07-06T02:49:53;94579.53;;;17.25;100.00
7480;BME280;3781;42.272;22.658;2022-07-06T02:52:19;94578.94;;;17.15;100.00
7480;BME280;3781;42.272;22.658;2022-07-06T02:54:46;94572.47;;;17.03;100.00
7480;BME280;3781;42.272;22.658;2022-07-06T02:57:14;94578.31;;;17.13;100.00
7480;BME280;3781;42.272;22.658;2022-07-06T02:59:41;94579.28;;;17.12;100.00
7480;BME280;3781;42.272;22.658;2022-07-06T03:02:08;94579.66;;;17.09;100.00
7480;BME280;3781;42.272;22.658;2022-07-06T03:04:36;94572.75;;;17.08;100.00
7480;BME280;3781;42.272;22.658;2022-07-06T03:07:03;94576.38;;;17.07;100.00
7480;BME280;3781;42.272;22.658;2022-07-06T03:09:30;94550.63;;;16.80;100.00
7480;BME280;3781;42.272;22.658;2022-07-06T03:11:57;94569.84;;;17.03;100.00
7480;BME280;3781;42.272;22.658;2022-07-06T03:14:24;94569.84;;;17.03;100.00
7480;BME280;3781;42.272;22.658;2022-07-06T03:16:51;94575.75;;;17.05;100.00
7480;BME280;3781;42.272;22.658;2022-07-06T03:19:18;94573.13;;;17.05;100.00
7480;BME280;3781;42.272;22.658;2022-07-06T03:21:46;94578.66;;;17.10;100.00
7480;BME280;3781;42.272;22.658;2022-07-06T03:24:13;94574.75;;;17.06;100.00
7480;BME280;3781;42.272;22.658;2022-07-06T03:26:40;94581.28;;;17.10;100.00
7480;BME280;3781;42.272;22.658;2022-07-06T03:29:06;94577.75;;;16.95;100.00
7480;BME280;3781;42.272;22.658;2022-07-06T03:31:33;94578.38;;;17.05;100.00
7480;BME280;3781;42.272;22.658;2022-07-06T03:34:00;94576.78;;;16.96;100.00
7480;BME280;3781;42.272;22.658;2022-07-06T03:36:27;94592.72;;;17.17;100.00
7480;BME280;3781;42.272;22.658;2022-07-06T03:38:55;94582.91;;;17.11;100.00
7480;BME280;3781;42.272;22.658;2022-07-06T03:41:22;94596.69;;;17.13;100.00
7480;BME280;3781;42.272;22.658;2022-07-06T03:43:49;94600.88;;;17.22;100.00
7480;BME280;3781;42.272;22.658;2022-07-06T03:46:15;94593.41;;;17.33;100.00
7480;BME280;3781;42.272;22.658;2022-07-06T03:48:42;94563.31;;;17.21;100.00
7480;BME280;3781;42.272;22.658;2022-07-06T03:51:09;94590.81;;;17.56;100.00
7480;BME280;3781;42.272;22.658;2022-07-06T03:53:37;94588.19;;;17.56;100.00
7480;BME280;3781;42.272;22.658;2022-07-06T03:56:05;94587.59;;;17.46;100.00
7480;BME280;3781;42.272;22.658;2022-07-06T03:58:49;94591.00;;;17.47;100.00
7480;BME280;3781;42.272;22.658;2022-07-06T04:01:16;94586.59;;;17.47;100.00
7480;BME280;3781;42.272;22.658;2022-07-06T04:03:43;94583.72;;;17.34;100.00
7480;BME280;3781;42.272;22.658;2022-07-06T04:06:11;94590.97;;;17.32;100.00
7480;BME280;3781;42.272;22.658;2022-07-06T04:08:37;94585.00;;;17.38;100.00
7480;BME280;3781;42.272;22.658;2022-07-06T04:11:06;94603.22;;;17.62;100.00
7480;BME280;3781;42.272;22.658;2022-07-06T04:13:33;94577.69;;;17.56;100.00
7480;BME280;3781;42.272;22.658;2022-07-06T04:16:00;94603.38;;;17.83;100.00
7480;BME280;3781;42.272;22.658;2022-07-06T04:18:27;94599.97;;;17.97;100.00
7480;BME280;3781;42.272;22.658;2022-07-06T04:20:53;94605.81;;;18.22;100.00
7480;BME280;3781;42.272;22.658;2022-07-06T04:23:22;94612.88;;;18.36;100.00
7480;BME280;3781;42.272;22.658;2022-07-06T04:25:49;94596.19;;;18.29;100.00
7480;BME280;3781;42.272;22.658;2022-07-06T04:28:17;94611.91;;;18.52;100.00
7480;BME280;3781;42.272;22.658;2022-07-06T04:30:44;94603.66;;;18.55;100.00
7480;BME280;3781;42.272;22.658;2022-07-06T04:33:11;94609.66;;;18.63;100.00
7480;BME280;3781;42.272;22.658;2022-07-06T04:35:37;94622.50;;;18.73;100.00
7480;BME280;3781;42.272;22.658;2022-07-06T04:38:04;94625.28;;;18.86;100.00
7480;BME280;3781;42.272;22.658;2022-07-06T04:40:31;94630.16;;;19.04;100.00
7480;BME280;3781;42.272;22.658;2022-07-06T04:42:58;94623.88;;;19.19;100.00
7480;BME280;3781;42.272;22.658;2022-07-06T04:45:27;94637.78;;;19.49;100.00
7480;BME280;3781;42.272;22.658;2022-07-06T04:47:54;94644.63;;;19.86;100.00
7480;BME280;3781;42.272;22.658;2022-07-06T04:50:20;94644.09;;;20.18;100.00
7480;BME280;3781;42.272;22.658;2022-07-06T04:52:47;94650.84;;;20.48;100.00
7480;BME280;3781;42.272;22.658;2022-07-06T04:55:14;94643.94;;;20.88;100.00
7480;BME280;3781;42.272;22.658;2022-07-06T04:57:41;94635.41;;;21.27;100.00
7480;BME280;3781;42.272;22.658;2022-07-06T05:00:09;94650.03;;;22.09;100.00
7480;BME280;3781;42.272;22.658;2022-07-06T05:02:37;94667.69;;;22.94;90.49
7480;BME280;3781;42.272;22.658;2022-07-06T05:05:05;94673.97;;;23.63;83.81
7480;BME280;3781;42.272;22.658;2022-07-06T05:07:31;94666.63;;;24.28;77.07
7480;BME280;3781;42.272;22.658;2022-07-06T05:09:59;94682.66;;;24.64;70.34
7480;BME280;3781;42.272;22.658;2022-07-06T05:12:26;94660.28;;;24.53;71.77
7480;BME280;3781;42.272;22.658;2022-07-06T05:14:53;94681.97;;;24.50;72.77
7480;BME280;3781;42.272;22.658;2022-07-06T05:17:19;94685.38;;;24.33;71.98
7480;BME280;3781;42.272;22.658;2022-07-06T05:19:48;94668.78;;;23.31;77.62
7480;BME280;3781;42.272;22.658;2022-07-06T05:22:14;94682.97;;;22.92;84.57
7480;BME280;3781;42.272;22.658;2022-07-06T05:24:41;94653.06;;;22.32;88.82
7480;BME280;3781;42.272;22.658;2022-07-06T05:27:08;94674.66;;;22.29;96.81
7480;BME280;3781;42.272;22.658;2022-07-06T05:29:35;94663.25;;;22.09;97.01
7480;BME280;3781;42.272;22.658;2022-07-06T05:32:02;94671.78;;;21.98;94.21
7480;BME280;3781;42.272;22.658;2022-07-06T05:34:29;94655.44;;;21.75;100.00
7480;BME280;3781;42.272;22.658;2022-07-06T05:36:57;94662.81;;;21.86;100.00
7480;BME280;3781;42.272;22.658;2022-07-06T05:39:24;94676.66;;;21.88;100.00
7480;BME280;3781;42.272;22.658;2022-07-06T05:41:51;94673.16;;;21.81;100.00
7480;BME280;3781;42.272;22.658;2022-07-06T05:44:17;94670.06;;;21.64;100.00
7480;BME280;3781;42.272;22.658;2022-07-06T05:46:44;94668.88;;;21.73;100.00
7480;BME280;3781;42.272;22.658;2022-07-06T05:49:11;94669.28;;;21.77;100.00
7480;BME280;3781;42.272;22.658;2022-07-06T05:52:08;94669.69;;;21.74;100.00
7480;BME280;3781;42.272;22.658;2022-07-06T05:54:48;94673.75;;;21.70;100.00
7480;BME280;3781;42.272;22.658;2022-07-06T05:57:14;94668.06;;;21.79;100.00
7480;BME280;3781;42.272;22.658;2022-07-06T05:59:43;94570.78;;;21.36;100.00
7480;BME280;3781;42.272;22.658;2022-07-06T06:02:10;94680.56;;;21.99;100.00
7480;BME280;3781;42.272;22.658;2022-07-06T06:04:37;94681.97;;;22.08;100.00
7480;BME280;3781;42.272;22.658;2022-07-06T06:07:04;94677.09;;;22.24;100.00
7480;BME280;3781;42.272;22.658;2022-07-06T06:09:30;94678.94;;;22.43;100.00
7480;BME280;3781;42.272;22.658;2022-07-06T06:11:59;94671.22;;;22.35;100.00
7480;BME280;3781;42.272;22.658;2022-07-06T06:14:25;94684.81;;;22.52;98.94
7480;BME280;3781;42.272;22.658;2022-07-06T06:16:52;94682.41;;;22.50;100.00
7480;BME280;3781;42.272;22.658;2022-07-06T06:19:19;94657.16;;;22.09;100.00
7480;BME280;3781;42.272;22.658;2022-07-06T06:21:46;94673.03;;;22.55;100.00
7480;BME280;3781;42.272;22.658;2022-07-06T06:24:12;94681.56;;;22.83;100.00
7480;BME280;3781;42.272;22.658;2022-07-06T06:26:39;94683.97;;;22.91;95.21
7480;BME280;3781;42.272;22.658;2022-07-06T06:29:07;94677.06;;;22.90;98.84
7480;BME280;3781;42.272;22.658;2022-07-06T06:31:34;94649.38;;;22.86;94.31
7480;BME280;3781;42.272;22.658;2022-07-06T06:34:01;94679.44;;;23.11;92.49
7480;BME280;3781;42.272;22.658;2022-07-06T06:36:28;94666.78;;;23.19;90.81
7480;BME280;3781;42.272;22.658;2022-07-06T06:38:54;94694.91;;;23.27;87.00
7480;BME280;3781;42.272;22.658;2022-07-06T06:41:21;94690.94;;;23.49;88.36
7480;BME280;3781;42.272;22.658;2022-07-06T06:43:48;94699.91;;;23.92;86.17
7480;BME280;3781;42.272;22.658;2022-07-06T06:46:16;94701.53;;;23.93;79.66
7480;BME280;3781;42.272;22.658;2022-07-06T06:48:43;94691.56;;;24.27;80.35
7480;BME280;3781;42.272;22.658;2022-07-06T06:51:09;94682.50;;;24.34;78.79
7480;BME280;3781;42.272;22.658;2022-07-06T06:53:36;94691.81;;;24.68;78.71
7480;BME280;3781;42.272;22.658;2022-07-06T06:56:03;94675.41;;;24.53;79.34
7480;BME280;3781;42.272;22.658;2022-07-06T06:58:30;94692.53;;;24.82;76.60
7480;BME280;3781;42.272;22.658;2022-07-06T07:00:57;94693.94;;;24.84;70.60
7480;BME280;3781;42.272;22.658;2022-07-06T07:03:26;94688.22;;;25.05;74.00
7480;BME280;3781;42.272;22.658;2022-07-06T07:05:53;94684.94;;;24.85;70.14
7480;BME280;3781;42.272;22.658;2022-07-06T07:08:19;94689.38;;;24.91;70.08
7480;BME280;3781;42.272;22.658;2022-07-06T07:10:46;94697.72;;;24.70;71.20
7480;BME280;3781;42.272;22.658;2022-07-06T07:13:13;94692.03;;;25.27;68.00
7480;BME280;3781;42.272;22.658;2022-07-06T07:15:40;94672.41;;;25.28;68.28
7480;BME280;3781;42.272;22.658;2022-07-06T07:18:06;94692.19;;;25.32;69.47
7480;BME280;3781;42.272;22.658;2022-07-06T07:20:35;94686.25;;;25.85;68.67
7480;BME280;3781;42.272;22.658;2022-07-06T07:23:01;94649.53;;;26.05;64.70
7480;BME280;3781;42.272;22.658;2022-07-06T07:25:28;94692.94;;;26.47;58.74
7480;BME280;3781;42.272;22.658;2022-07-06T07:27:55;94691.03;;;27.00;58.90
7480;BME280;3781;42.272;22.658;2022-07-06T07:30:22;94672.75;;;27.55;55.86
7480;BME280;3781;42.272;22.658;2022-07-06T07:32:49;94693.56;;;27.81;58.86
7480;BME280;3781;42.272;22.658;2022-07-06T07:35:16;94696.78;;;28.40;54.64
7480;BME280;3781;42.272;22.658;2022-07-06T07:37:44;94691.81;;;28.60;53.17
7480;BME280;3781;42.272;22.658;2022-07-06T07:40:11;94702.97;;;29.06;53.70
7480;BME280;3781;42.272;22.658;2022-07-06T07:42:38;94709.03;;;29.35;49.77
7480;BME280;3781;42.272;22.658;2022-07-06T07:45:06;94659.94;;;29.46;49.97
7480;BME280;3781;42.272;22.658;2022-07-06T07:47:33;94699.69;;;29.38;49.65
7480;BME280;3781;42.272;22.658;2022-07-06T07:50:00;94714.25;;;28.92;47.93
7480;BME280;3781;42.272;22.658;2022-07-06T07:52:27;94701.16;;;28.46;48.88
7480;BME280;3781;42.272;22.658;2022-07-06T07:54:55;94701.31;;;28.22;51.29
7480;BME280;3781;42.272;22.658;2022-07-06T07:57:22;94699.50;;;28.11;52.59
7480;BME280;3781;42.272;22.658;2022-07-06T07:59:49;94680.09;;;28.32;54.55
7480;BME280;3781;42.272;22.658;2022-07-06T08:02:15;94690.69;;;28.72;52.00
7480;BME280;3781;42.272;22.658;2022-07-06T08:04:42;94698.28;;;28.97;49.95
7480;BME280;3781;42.272;22.658;2022-07-06T08:07:09;94649.16;;;28.86;50.70
7480;BME280;3781;42.272;22.658;2022-07-06T08:09:36;94704.16;;;29.54;49.42
7480;BME280;3781;42.272;22.658;2022-07-06T08:12:05;94706.53;;;27.89;46.78
7480;BME280;3781;42.272;22.658;2022-07-06T08:14:32;94697.22;;;27.52;50.47
7480;BME280;3781;42.272;22.658;2022-07-06T08:16:59;94677.91;;;27.73;50.49
7480;BME280;3781;42.272;22.658;2022-07-06T08:19:26;94701.81;;;28.53;49.05
7480;BME280;3781;42.272;22.658;2022-07-06T08:21:53;94703.66;;;28.64;48.98
7480;BME280;3781;42.272;22.658;2022-07-06T08:24:20;94704.09;;;29.27;46.41
7480;BME280;3781;42.272;22.658;2022-07-06T08:26:47;94703.94;;;29.00;44.96
7480;BME280;3781;42.272;22.658;2022-07-06T08:29:15;94697.88;;;29.43;48.47
7480;BME280;3781;42.272;22.658;2022-07-06T08:31:42;94695.97;;;29.60;47.47
7480;BME280;3781;42.272;22.658;2022-07-06T08:34:09;94686.81;;;29.56;44.45
7480;BME280;3781;42.272;22.658;2022-07-06T08:36:36;94682.47;;;29.50;46.94
7480;BME280;3781;42.272;22.658;2022-07-06T08:39:03;94700.94;;;29.52;45.43
7480;BME280;3781;42.272;22.658;2022-07-06T08:41:29;94691.44;;;29.83;47.94
7480;BME280;3781;42.272;22.658;2022-07-06T08:43:56;94694.88;;;29.18;44.14
7480;BME280;3781;42.272;22.658;2022-07-06T08:46:27;94698.50;;;29.50;46.10
7480;BME280;3781;42.272;22.658;2022-07-06T08:48:55;94690.00;;;29.53;46.39
7480;BME280;3781;42.272;22.658;2022-07-06T08:51:24;94705.53;;;29.95;45.34
7480;BME280;3781;42.272;22.658;2022-07-06T08:53:51;94697.47;;;29.51;45.66
7480;BME280;3781;42.272;22.658;2022-07-06T08:56:18;94699.00;;;29.47;45.15
7480;BME280;3781;42.272;22.658;2022-07-06T08:58:45;94694.09;;;29.77;45.44
7480;BME280;3781;42.272;22.658;2022-07-06T09:01:12;94707.84;;;29.86;42.52
7480;BME280;3781;42.272;22.658;2022-07-06T09:03:40;94706.81;;;29.70;43.21
7480;BME280;3781;42.272;22.658;2022-07-06T09:06:08;94703.66;;;29.35;46.32
7480;BME280;3781;42.272;22.658;2022-07-06T09:08:35;94702.19;;;29.44;47.25
7480;BME280;3781;42.272;22.658;2022-07-06T09:11:03;94653.66;;;29.57;46.58
7480;BME280;3781;42.272;22.658;2022-07-06T09:13:29;94703.41;;;29.97;44.69
7480;BME280;3781;42.272;22.658;2022-07-06T09:16:08;94697.91;;;29.87;44.98
7480;BME280;3781;42.272;22.658;2022-07-06T09:18:36;94698.91;;;29.80;43.99
7480;BME280;3781;42.272;22.658;2022-07-06T09:21:04;94692.09;;;29.13;45.50
7480;BME280;3781;42.272;22.658;2022-07-06T09:23:32;94690.97;;;29.47;46.22
7480;BME280;3781;42.272;22.658;2022-07-06T09:26:01;94688.44;;;29.57;45.87
7480;BME280;3781;42.272;22.658;2022-07-06T09:28:40;94675.41;;;29.06;46.06
7480;BME280;3781;42.272;22.658;2022-07-06T09:31:07;94682.41;;;28.74;46.63
7480;BME280;3781;42.272;22.658;2022-07-06T09:33:34;94682.00;;;28.82;47.58
7480;BME280;3781;42.272;22.658;2022-07-06T09:36:01;94684.50;;;28.55;47.59
7480;BME280;3781;42.272;22.658;2022-07-06T09:38:30;94681.06;;;29.26;48.00
7480;BME280;3781;42.272;22.658;2022-07-06T09:40:56;94678.38;;;29.86;46.06
7480;BME280;3781;42.272;22.658;2022-07-06T09:43:24;94686.78;;;30.80;43.96
7480;BME280;3781;42.272;22.658;2022-07-06T09:45:53;94685.22;;;31.25;43.05
7480;BME280;3781;42.272;22.658;2022-07-06T09:48:21;94691.66;;;32.48;40.66
7480;BME280;3781;42.272;22.658;2022-07-06T09:50:49;94691.69;;;32.53;39.36
7480;BME280;3781;42.272;22.658;2022-07-06T09:53:18;94684.53;;;32.02;39.46
7480;BME280;3781;42.272;22.658;2022-07-06T09:55:48;94663.34;;;32.11;40.90
7480;BME280;3781;42.272;22.658;2022-07-06T09:58:16;94681.28;;;31.90;38.05
7480;BME280;3781;42.272;22.658;2022-07-06T10:00:44;94687.09;;;31.72;42.46
7480;BME280;3781;42.272;22.658;2022-07-06T10:03:11;94679.63;;;31.79;41.57
7480;BME280;3781;42.272;22.658;2022-07-06T10:05:40;94678.94;;;31.52;41.66
7480;BME280;3781;42.272;22.658;2022-07-06T10:08:08;94689.94;;;31.08;39.07
7480;BME280;3781;42.272;22.658;2022-07-06T10:10:36;94683.88;;;30.28;42.74
7480;BME280;3781;42.272;22.658;2022-07-06T10:13:06;94685.75;;;30.86;43.82
7480;BME280;3781;42.272;22.658;2022-07-06T10:15:34;94678.97;;;30.73;43.45
7480;BME280;3781;42.272;22.658;2022-07-06T10:18:03;94673.25;;;30.33;43.96
7480;BME280;3781;42.272;22.658;2022-07-06T10:20:32;94648.41;;;30.16;44.76
7480;BME280;3781;42.272;22.658;2022-07-06T10:23:03;94673.56;;;30.15;44.83
7480;BME280;3781;42.272;22.658;2022-07-06T10:25:32;94676.31;;;30.20;45.25
7480;BME280;3781;42.272;22.658;2022-07-06T10:27:59;94654.56;;;29.68;46.91
7480;BME280;3781;42.272;22.658;2022-07-06T10:30:28;94626.50;;;28.89;48.14
7480;BME280;3781;42.272;22.658;2022-07-06T10:32:56;94658.91;;;28.76;49.23
7480;BME280;3781;42.272;22.658;2022-07-06T10:35:25;94650.97;;;28.48;48.82
7480;BME280;3781;42.272;22.658;2022-07-06T10:38:03;94656.16;;;28.38;49.86
7480;BME280;3781;42.272;22.658;2022-07-06T10:40:34;94661.31;;;28.27;48.19
7480;BME280;3781;42.272;22.658;2022-07-06T10:43:18;94645.59;;;28.14;50.96
7480;BME280;3781;42.272;22.658;2022-07-06T10:45:53;94667.34;;;28.51;48.31
7480;BME280;3781;42.272;22.658;2022-07-06T10:48:20;94664.25;;;28.43;49.41
7480;BME280;3781;42.272;22.658;2022-07-06T10:50:49;94616.28;;;28.03;50.66
7480;BME280;3781;42.272;22.658;2022-07-06T10:53:17;94656.38;;;29.02;48.93
7480;BME280;3781;42.272;22.658;2022-07-06T10:55:49;94675.97;;;31.01;44.81
7480;BME280;3781;42.272;22.658;2022-07-06T10:58:38;94674.19;;;32.51;41.47
7480;BME280;3781;42.272;22.658;2022-07-06T11:01:08;94676.53;;;32.32;40.87
7480;BME280;3781;42.272;22.658;2022-07-06T11:03:40;94679.19;;;31.97;40.78
7480;BME280;3781;42.272;22.658;2022-07-06T11:06:09;94678.16;;;32.43;42.46
7480;BME280;3781;42.272;22.658;2022-07-06T11:09:04;94678.44;;;34.17;38.23
7480;BME280;3781;42.272;22.658;2022-07-06T11:11:40;94676.53;;;34.61;37.40
7480;BME280;3781;42.272;22.658;2022-07-06T11:14:09;94674.56;;;35.63;37.30
7480;BME280;3781;42.272;22.658;2022-07-06T11:16:39;94670.97;;;35.91;34.39
7480;BME280;3781;42.272;22.658;2022-07-06T11:19:08;94671.97;;;36.74;33.20
7480;BME280;3781;42.272;22.658;2022-07-06T11:21:38;94670.81;;;37.13;31.93
7480;BME280;3781;42.272;22.658;2022-07-06T11:24:07;94653.75;;;37.12;34.89
7480;BME280;3781;42.272;22.658;2022-07-06T11:26:34;94654.84;;;36.97;33.02
7480;BME280;3781;42.272;22.658;2022-07-06T11:29:03;94654.28;;;35.36;35.09
7480;BME280;3781;42.272;22.658;2022-07-06T11:31:33;94639.56;;;34.23;36.44
7480;BME280;3781;42.272;22.658;2022-07-06T11:34:02;94644.69;;;34.63;38.77
7480;BME280;3781;42.272;22.658;2022-07-06T11:36:29;94651.31;;;35.62;35.64
7480;BME280;3781;42.272;22.658;2022-07-06T11:38:56;94644.72;;;35.20;34.91
7480;BME280;3781;42.272;22.658;2022-07-06T11:41:24;94645.41;;;35.07;33.94
7480;BME280;3781;42.272;22.658;2022-07-06T11:43:50;94645.91;;;32.89;36.73
7480;BME280;3781;42.272;22.658;2022-07-06T11:46:22;94636.28;;;32.62;38.62
7480;BME280;3781;42.272;22.658;2022-07-06T11:48:49;94635.66;;;32.05;39.74
7480;BME280;3781;42.272;22.658;2022-07-06T11:51:18;94635.34;;;31.30;41.34
7480;BME280;3781;42.272;22.658;2022-07-06T11:53:46;94630.19;;;30.18;41.07
7480;BME280;3781;42.272;22.658;2022-07-06T11:56:14;94622.03;;;31.50;42.27
7480;BME280;3781;42.272;22.658;2022-07-06T11:58:45;94620.84;;;33.23;41.06
7480;BME280;3781;42.272;22.658;2022-07-06T12:01:12;94626.09;;;34.90;36.24
7480;BME280;3781;42.272;22.658;2022-07-06T12:03:40;94632.97;;;36.75;33.20
7480;BME280;3781;42.272;22.658;2022-07-06T12:06:13;94637.81;;;38.19;30.16
7480;BME280;3781;42.272;22.658;2022-07-06T12:08:43;94632.94;;;37.40;30.96
7480;BME280;3781;42.272;22.658;2022-07-06T12:11:10;94625.34;;;37.10;32.63
7480;BME280;3781;42.272;22.658;2022-07-06T12:13:37;94618.13;;;35.80;33.12
7480;BME280;3781;42.272;22.658;2022-07-06T12:16:12;94613.44;;;34.57;34.70
7480;BME280;3781;42.272;22.658;2022-07-06T12:18:41;94616.75;;;33.51;34.97
7480;BME280;3781;42.272;22.658;2022-07-06T12:21:08;94609.91;;;32.59;38.06
7480;BME280;3781;42.272;22.658;2022-07-06T12:23:42;94603.44;;;32.65;36.53
7480;BME280;3781;42.272;22.658;2022-07-06T12:26:09;94602.69;;;33.59;37.10
7480;BME280;3781;42.272;22.658;2022-07-06T12:28:36;94599.44;;;35.36;35.60
7480;BME280;3781;42.272;22.658;2022-07-06T12:31:04;94599.63;;;35.87;33.26
7480;BME280;3781;42.272;22.658;2022-07-06T12:33:31;94605.75;;;35.26;33.18
7480;BME280;3781;42.272;22.658;2022-07-06T12:36:09;94589.63;;;34.64;34.27
7480;BME280;3781;42.272;22.658;2022-07-06T12:38:45;94592.56;;;33.90;35.19
7480;BME280;3781;42.272;22.658;2022-07-06T12:41:29;94590.09;;;34.03;34.34
7480;BME280;3781;42.272;22.658;2022-07-06T12:44:05;94590.38;;;34.98;33.73
7480;BME280;3781;42.272;22.658;2022-07-06T12:46:34;94590.06;;;34.76;33.15
7480;BME280;3781;42.272;22.658;2022-07-06T12:49:04;94594.72;;;35.70;31.22
7480;BME280;3781;42.272;22.658;2022-07-06T12:51:58;94599.06;;;36.64;30.57
7480;BME280;3781;42.272;22.658;2022-07-06T12:54:28;94594.50;;;34.62;32.08
7480;BME280;3781;42.272;22.658;2022-07-06T12:57:14;94591.19;;;34.70;34.75
7480;BME280;3781;42.272;22.658;2022-07-06T12:59:44;94597.47;;;36.26;31.31
7480;BME280;3781;42.272;22.658;2022-07-06T13:02:20;94601.81;;;37.51;26.32
7480;BME280;3781;42.272;22.658;2022-07-06T13:04:55;94594.47;;;37.92;25.57
7480;BME280;3781;42.272;22.658;2022-07-06T13:07:22;94595.25;;;35.25;30.09
7480;BME280;3781;42.272;22.658;2022-07-06T13:09:51;94586.28;;;33.56;31.37